createdAt,value
2022-10-06T00:01:56.028Z,11.10
2022-10-06T00:06:58.827Z,11.80
2022-10-06T00:12:01.528Z,12.00
2022-10-06T00:17:04.818Z,11.30
2022-10-06T00:22:07.536Z,11.30
2022-10-06T00:27:10.232Z,12.40
2022-10-06T00:32:12.911Z,12.20
2022-10-06T00:37:15.630Z,9.70
2022-10-06T00:42:31.412Z,11.40
2022-10-06T00:47:34.174Z,10.00
2022-10-06T00:52:36.902Z,11.70
2022-10-06T00:57:41.362Z,8.10
2022-10-06T01:03:07.910Z,9.60
2022-10-06T01:08:10.750Z,11.20
2022-10-06T01:13:14.873Z,11.70
2022-10-06T01:18:20.385Z,11.30
2022-10-06T01:23:23.503Z,11.80
2022-10-06T01:33:30.375Z,11.30
2022-10-06T01:38:33.536Z,11.80
2022-10-06T01:43:36.313Z,12.20
2022-10-06T01:48:38.983Z,12.50
2022-10-06T01:53:42.091Z,13.60
2022-10-06T01:58:44.760Z,13.20
2022-10-06T02:03:47.439Z,14.20
2022-10-06T02:08:50.288Z,13.50
2022-10-06T02:13:53.605Z,12.00
2022-10-06T02:23:59.174Z,13.60
2022-10-06T02:29:01.823Z,12.00
2022-10-06T02:34:04.948Z,11.00
2022-10-06T02:39:07.813Z,12.10
2022-10-06T02:44:10.561Z,13.90
2022-10-06T02:49:13.733Z,11.70
2022-10-06T02:59:19.307Z,12.10
2022-10-06T03:04:22.027Z,13.10
2022-10-06T03:09:25.355Z,12.90
2022-10-06T03:14:28.166Z,12.50
2022-10-06T03:19:30.835Z,13.40
2022-10-06T03:24:33.857Z,11.90
2022-10-06T03:29:36.523Z,13.30
2022-10-06T03:34:39.221Z,11.60
2022-10-06T03:39:42.120Z,12.60
2022-10-06T03:44:44.875Z,12.30
2022-10-06T03:49:47.867Z,14.30
2022-10-06T03:54:50.547Z,14.30
2022-10-06T03:59:53.282Z,11.40
2022-10-06T04:04:56.552Z,13.30
2022-10-06T04:15:02.486Z,16.20
2022-10-06T04:20:06.010Z,18.10
2022-10-06T04:25:08.886Z,15.20
2022-10-06T04:30:12.751Z,14.60
2022-10-06T04:35:15.632Z,13.60
2022-10-06T04:45:21.237Z,13.20
2022-10-06T04:50:24.147Z,12.90
2022-10-06T04:55:26.786Z,12.80
2022-10-06T05:00:29.531Z,10.80
2022-10-06T05:05:32.196Z,10.60
2022-10-06T05:10:34.864Z,10.60
2022-10-06T05:15:37.877Z,10.10
2022-10-06T05:20:40.571Z,10.70
2022-10-06T05:25:51.741Z,10.00
2022-10-06T05:30:55.137Z,11.10
2022-10-06T05:36:00.750Z,8.20
2022-10-06T05:41:03.342Z,9.80
2022-10-06T05:46:11.057Z,10.00
2022-10-06T05:51:15.052Z,9.80
2022-10-06T05:56:20.524Z,9.60
2022-10-06T06:01:37.051Z,10.00
2022-10-06T06:06:46.255Z,9.60
2022-10-06T06:11:51.036Z,9.80
2022-10-06T06:16:54.356Z,10.40
2022-10-06T06:21:57.440Z,8.60
2022-10-06T06:27:00.305Z,10.10
2022-10-06T06:32:06.005Z,10.10
2022-10-06T06:37:14.979Z,9.60
2022-10-06T06:42:19.206Z,10.20
2022-10-06T06:47:25.976Z,9.80
2022-10-06T06:52:31.135Z,9.90
2022-10-06T06:57:34.363Z,8.30
2022-10-06T07:02:41.867Z,9.40
2022-10-06T07:07:48.627Z,9.60
2022-10-06T07:24:20.873Z,9.10
2022-10-06T07:29:25.258Z,8.20
2022-10-06T07:40:18.567Z,7.80
2022-10-06T07:45:39.041Z,7.60
2022-10-06T07:50:43.816Z,7.90
2022-10-06T07:55:47.891Z,8.00
2022-10-06T08:00:52.908Z,7.10
2022-10-06T08:06:03.392Z,7.80
2022-10-06T08:11:08.179Z,7.20
2022-10-06T08:16:22.996Z,6.90
2022-10-06T08:21:29.090Z,6.50
2022-10-06T08:26:33.279Z,6.00
2022-10-06T08:31:36.086Z,5.10
2022-10-06T08:36:38.973Z,6.00
2022-10-06T08:41:51.210Z,4.40
2022-10-06T08:47:02.578Z,4.70
2022-10-06T08:52:27.990Z,4.10
2022-10-06T08:58:29.461Z,4.10
2022-10-06T09:03:45.909Z,3.70
2022-10-06T09:09:35.694Z,3.50
2022-10-06T09:15:12.346Z,3.50
2022-10-06T09:20:38.397Z,3.60
2022-10-06T09:25:42.026Z,3.90
2022-10-06T09:30:53.151Z,3.40
2022-10-06T09:36:08.316Z,3.90
2022-10-06T09:41:30.077Z,3.50
2022-10-06T09:46:43.949Z,3.50
2022-10-06T09:52:07.695Z,3.50
2022-10-06T09:57:28.929Z,3.70
2022-10-06T10:02:39.875Z,3.20
2022-10-06T10:08:07.284Z,3.00
2022-10-06T10:13:43.915Z,3.00
2022-10-06T10:25:25.649Z,3.10
2022-10-06T10:30:39.573Z,2.30
2022-10-06T10:35:48.582Z,2.60
2022-10-06T10:41:11.929Z,2.50
2022-10-06T10:46:34.856Z,2.40
2022-10-06T10:51:52.967Z,2.40
2022-10-06T10:56:55.823Z,2.00
2022-10-06T11:02:14.487Z,2.30
2022-10-06T11:13:25.218Z,5.00
2022-10-06T11:18:49.648Z,2.60
2022-10-06T11:24:21.373Z,2.60
2022-10-06T11:29:43.199Z,2.20
2022-10-06T11:34:51.572Z,2.00
2022-10-06T11:40:17.345Z,2.20
2022-10-06T11:45:32.265Z,2.00
2022-10-06T11:50:43.306Z,2.00
2022-10-06T11:55:46.093Z,2.30
2022-10-06T12:05:57.063Z,1.60
2022-10-06T12:11:02.384Z,2.10
2022-10-06T12:22:16.982Z,2.30
2022-10-06T12:27:30.271Z,2.00
2022-10-06T12:32:53.061Z,1.80
2022-10-06T12:38:05.096Z,1.90
2022-10-06T12:43:15.311Z,2.20
2022-10-06T12:48:26.967Z,2.20
2022-10-06T12:53:37.005Z,2.50
2022-10-06T12:58:39.727Z,2.00
2022-10-06T13:09:15.049Z,2.00
2022-10-06T13:14:17.721Z,1.90
2022-10-06T13:24:31.064Z,2.10
2022-10-06T13:29:33.734Z,1.90
2022-10-06T13:34:43.283Z,2.70
2022-10-06T13:39:46.725Z,2.10
2022-10-06T13:44:59.567Z,2.50
2022-10-06T13:50:08.372Z,1.90
2022-10-06T13:55:18.666Z,2.20
2022-10-06T14:00:25.740Z,2.20
2022-10-06T14:05:40.225Z,1.80
2022-10-06T14:10:49.750Z,2.40
2022-10-06T14:16:02.125Z,2.20
2022-10-06T14:21:36.791Z,2.80
2022-10-06T14:26:39.932Z,2.50
2022-10-06T14:36:55.417Z,2.90
2022-10-06T14:41:58.865Z,3.20
2022-10-06T14:47:01.564Z,2.40
2022-10-06T14:52:05.676Z,2.20
2022-10-06T14:57:09.807Z,2.50
2022-10-06T15:02:12.643Z,3.00
2022-10-06T15:07:34.032Z,3.80
2022-10-06T15:12:36.932Z,4.00
2022-10-06T15:17:39.605Z,3.80
2022-10-06T15:22:42.288Z,3.50
2022-10-06T15:28:03.521Z,3.50
2022-10-06T15:33:06.568Z,4.00
2022-10-06T15:38:09.336Z,3.90
2022-10-06T15:48:20.330Z,10.40
2022-10-06T15:53:23.151Z,10.70
2022-10-06T16:03:41.278Z,18.40
2022-10-06T16:08:44.405Z,14.00
2022-10-06T16:13:47.099Z,6.90
2022-10-06T16:18:49.908Z,8.60
2022-10-06T16:23:53.732Z,6.50
2022-10-06T16:28:56.559Z,16.50
2022-10-06T16:33:59.406Z,25.40
2022-10-06T16:39:03.318Z,29.40
2022-10-06T16:44:06.041Z,58.40
2022-10-06T16:49:09.758Z,32.70
2022-10-06T16:54:14.782Z,16.80
2022-10-06T16:59:20.366Z,13.80
2022-10-06T17:04:26.066Z,13.50
2022-10-06T17:09:29.810Z,14.60
2022-10-06T17:14:34.591Z,26.30
2022-10-06T17:19:37.344Z,21.10
2022-10-06T17:24:40.028Z,21.10
2022-10-06T17:29:44.788Z,23.70
2022-10-06T17:34:47.898Z,31.90
2022-10-06T17:44:53.869Z,46.80
2022-10-06T17:54:59.809Z,30.40
2022-10-06T18:00:02.622Z,41.00
2022-10-06T18:05:07.098Z,27.50
2022-10-06T18:10:28.363Z,20.90
2022-10-06T18:15:36.342Z,17.50
2022-10-06T18:20:41.306Z,15.20
2022-10-06T18:25:44.489Z,14.20
2022-10-06T18:36:14.942Z,13.60
2022-10-06T18:41:19.654Z,22.50
2022-10-06T18:46:41.904Z,27.90
2022-10-06T18:51:47.011Z,21.90
2022-10-06T18:56:53.489Z,17.00
2022-10-06T19:01:56.800Z,15.30
2022-10-06T19:06:59.653Z,18.70
2022-10-06T19:12:02.344Z,21.90
2022-10-06T19:17:14.975Z,24.80
2022-10-06T19:22:20.135Z,19.80
2022-10-06T19:27:25.109Z,27.40
2022-10-06T19:32:32.352Z,43.10
2022-10-06T19:37:35.045Z,33.60
2022-10-06T19:42:51.231Z,40.30
2022-10-06T19:47:54.822Z,32.80
2022-10-06T19:52:57.553Z,29.50
2022-10-06T19:58:00.538Z,28.30
2022-10-06T20:03:07.532Z,55.30
2022-10-06T20:08:10.223Z,65.00
2022-10-06T20:13:12.897Z,45.80
2022-10-06T20:18:15.926Z,68.60
2022-10-06T20:23:18.659Z,68.00
2022-10-06T20:28:21.620Z,37.20
2022-10-06T20:33:24.410Z,45.00
2022-10-06T20:38:47.056Z,46.70
2022-10-06T20:43:50.832Z,45.10
2022-10-06T20:48:53.665Z,28.00
2022-10-06T20:53:56.357Z,19.30
2022-10-06T20:59:08.816Z,16.60
2022-10-06T21:04:12.150Z,20.00
2022-10-06T21:14:20.107Z,27.80
2022-10-06T21:19:22.916Z,22.80
2022-10-06T21:24:25.711Z,16.70
2022-10-06T21:29:28.483Z,19.10
2022-10-06T21:34:31.881Z,20.60
2022-10-06T21:39:35.038Z,22.40
2022-10-06T21:49:40.499Z,16.60
2022-10-06T21:54:43.256Z,14.70
2022-10-06T21:59:47.062Z,13.10
2022-10-06T22:04:49.833Z,12.50
2022-10-06T22:09:52.584Z,14.30
2022-10-06T22:14:58.849Z,12.70
2022-10-06T22:20:01.616Z,12.70
2022-10-06T22:25:05.282Z,12.20
2022-10-06T22:30:09.096Z,10.20
2022-10-06T22:35:11.985Z,13.20
2022-10-06T22:40:14.813Z,13.10
2022-10-06T22:45:17.693Z,11.50
2022-10-06T22:50:20.441Z,11.20
2022-10-06T22:55:23.823Z,10.70
2022-10-06T23:00:27.863Z,10.10
2022-10-06T23:05:30.949Z,11.10
2022-10-06T23:10:37.127Z,12.90
2022-10-06T23:15:40.032Z,11.00
2022-10-06T23:20:42.839Z,9.30
2022-10-06T23:25:45.739Z,10.70
2022-10-06T23:30:48.537Z,9.70
2022-10-06T23:35:58.485Z,10.20
2022-10-06T23:41:01.304Z,10.80
2022-10-06T23:46:04.244Z,9.90
2022-10-06T23:51:13.040Z,8.70
2022-10-06T23:56:16.264Z,8.60
